Time;durP1;ratioP1;P1;durP2;ratioP2;P2;SDS_P1;SDS_P2;PMS_P1;PMS_P2;Temp;Humidity;BMP_temperature;BMP_pressure;BME280_temperature;BME280_humidity;BME280_pressure;Samples;Min_cycle;Max_cycle;Signal;HPM_P1;HPM_P2
2023/01/18 00:01:44;;;;;;;7.85;4.43;;;;;;;;;;10404326;28;20489;-53
2023/01/18 00:06:45;;;;;;;7.68;4.35;;;;;;;;;;10395546;28;20025;-59
2023/01/18 00:11:47;;;;;;;9.93;4.28;;;;;;;;;;10405775;28;20033;-59
2023/01/18 00:16:48;;;;;;;6.07;3.88;;;;;;;;;;10403863;28;20076;-60
2023/01/18 00:21:53;;;;;;;7.68;4.47;;;;;;;;;;10400462;28;20056;-56
2023/01/18 00:26:53;;;;;;;5.53;3.90;;;;;;;;;;10406729;28;20473;-59
2023/01/18 00:31:54;;;;;;;7.20;4.15;;;;;;;;;;10392855;28;20096;-60
2023/01/18 00:36:55;;;;;;;4.88;3.53;;;;;;;;;;10392451;28;20046;-58
2023/01/18 00:47:15;;;;;;;8.57;4.15;;;;;;;;;;10401805;28;20029;-59
2023/01/18 00:52:16;;;;;;;8.90;3.72;;;;;;;;;;10405139;28;20029;-56
2023/01/18 00:57:16;;;;;;;3.50;2.80;;;;;;;;;;10389851;28;20029;-59
2023/01/18 01:02:17;;;;;;;5.53;3.63;;;;;;;;;;10405342;28;20037;-60
2023/01/18 01:07:17;;;;;;;6.18;3.60;;;;;;;;;;10403409;28;20030;-59
2023/01/18 01:28:49;;;;;;;6.55;3.97;;;;;;;;;;10392401;28;20029;-60
2023/01/18 01:33:50;;;;;;;5.47;3.20;;;;;;;;;;10395984;28;20072;-61
2023/01/18 01:38:52;;;;;;;5.72;3.10;;;;;;;;;;10392580;28;20042;-60
2023/01/18 01:44:23;;;;;;;3.80;2.83;;;;;;;;;;10403832;28;20053;-58
2023/01/18 01:49:31;;;;;;;5.97;3.15;;;;;;;;;;10388457;28;20271;-59
2023/01/18 01:55:06;;;;;;;3.28;2.85;;;;;;;;;;10403598;28;20036;-57
2023/01/18 02:00:23;;;;;;;3.35;2.88;;;;;;;;;;10404189;28;20472;-61
2023/01/18 02:05:24;;;;;;;3.72;3.05;;;;;;;;;;10385745;28;20111;-56
2023/01/18 02:10:25;;;;;;;3.53;2.85;;;;;;;;;;10404696;28;20060;-57
2023/01/18 02:15:48;;;;;;;6.60;2.92;;;;;;;;;;10388288;28;20041;-59
2023/01/18 02:21:04;;;;;;;4.70;3.03;;;;;;;;;;10371870;28;20541;-53
2023/01/18 02:26:21;;;;;;;4.72;3.28;;;;;;;;;;10390102;28;20119;-54
2023/01/18 02:31:41;;;;;;;3.70;2.92;;;;;;;;;;10385219;28;20060;-46
2023/01/18 02:37:16;;;;;;;3.72;2.95;;;;;;;;;;10383402;28;20087;-58
2023/01/18 02:47:43;;;;;;;3.50;2.75;;;;;;;;;;10386597;28;20060;-53
2023/01/18 02:52:52;;;;;;;2.58;2.38;;;;;;;;;;10406368;28;20500;-52
2023/01/18 02:58:01;;;;;;;4.25;2.92;;;;;;;;;;10407868;28;20029;-60
2023/01/18 03:03:04;;;;;;;4.10;2.90;;;;;;;;;;10390235;28;20623;-57
2023/01/18 03:08:15;;;;;;;4.45;2.95;;;;;;;;;;10394235;28;20030;-60
2023/01/18 03:13:30;;;;;;;6.68;2.70;;;;;;;;;;10404405;28;20072;-55
2023/01/18 03:18:59;;;;;;;3.13;2.80;;;;;;;;;;10391513;28;20025;-54
2023/01/18 03:24:02;;;;;;;;;;;;;;;;;;10397667;28;20099;-52
2023/01/18 03:34:26;;;;;;;4.72;2.75;;;;;;;;;;10380629;28;20029;-59
2023/01/18 03:39:34;;;;;;;5.07;2.75;;;;;;;;;;10398051;28;20024;-58
2023/01/18 03:44:42;;;;;;;2.83;2.50;;;;;;;;;;10391588;28;20041;-56
2023/01/18 03:49:43;;;;;;;3.35;2.47;;;;;;;;;;10383230;28;20064;-55
2023/01/18 03:55:17;;;;;;;3.45;2.65;;;;;;;;;;10401693;28;20041;-51
2023/01/18 04:00:18;;;;;;;3.83;2.70;;;;;;;;;;10398736;28;20036;-55
2023/01/18 04:05:20;;;;;;;2.83;2.33;;;;;;;;;;10404535;28;20036;-56
2023/01/18 04:10:20;;;;;;;3.40;2.60;;;;;;;;;;10404961;28;20178;-59
2023/01/18 04:15:21;;;;;;;2.92;2.58;;;;;;;;;;10405271;28;20432;-53
2023/01/18 04:20:22;;;;;;;9.35;2.67;;;;;;;;;;10399918;28;20038;-56
2023/01/18 04:25:23;;;;;;;2.83;2.22;;;;;;;;;;10406012;28;20052;-51
2023/01/18 04:30:23;;;;;;;3.35;2.65;;;;;;;;;;10404392;28;20116;-59
2023/01/18 04:35:24;;;;;;;4.50;2.80;;;;;;;;;;10393052;28;20065;-56
2023/01/18 04:40:24;;;;;;;3.55;2.30;;;;;;;;;;10383343;28;20037;-55
2023/01/18 04:45:25;;;;;;;3.53;2.60;;;;;;;;;;10398889;28;20036;-59
2023/01/18 04:50:25;;;;;;;3.00;2.47;;;;;;;;;;10388939;28;20048;-60
2023/01/18 04:55:26;;;;;;;2.65;2.42;;;;;;;;;;10386342;28;20104;-60
2023/01/18 05:00:27;;;;;;;3.33;2.30;;;;;;;;;;10402436;28;20029;-59
2023/01/18 05:05:27;;;;;;;5.72;2.58;;;;;;;;;;10402282;28;20022;-60
2023/01/18 05:10:28;;;;;;;2.00;1.85;;;;;;;;;;10402018;28;20025;-60
2023/01/18 05:15:29;;;;;;;3.10;2.58;;;;;;;;;;10392295;28;20075;-49
2023/01/18 05:20:30;;;;;;;2.35;2.15;;;;;;;;;;10401475;28;20034;-59
2023/01/18 05:25:30;;;;;;;2.33;1.83;;;;;;;;;;10398273;28;20036;-60
2023/01/18 05:30:31;;;;;;;3.15;2.53;;;;;;;;;;10400984;28;20401;-59
2023/01/18 05:35:32;;;;;;;2.92;2.30;;;;;;;;;;10389269;28;20515;-60
2023/01/18 05:40:32;;;;;;;6.15;2.33;;;;;;;;;;10388220;28;20443;-57
2023/01/18 05:45:33;;;;;;;2.90;2.17;;;;;;;;;;10390857;28;20087;-59
2023/01/18 05:50:33;;;;;;;2.88;2.33;;;;;;;;;;10400714;28;20024;-60
2023/01/18 05:55:34;;;;;;;2.72;2.53;;;;;;;;;;10402420;28;20069;-61
2023/01/18 06:00:39;;;;;;;2.67;2.17;;;;;;;;;;10399618;28;20041;-59
2023/01/18 06:05:39;;;;;;;4.03;2.55;;;;;;;;;;10399255;28;20045;-60
2023/01/18 06:10:40;;;;;;;2.97;2.30;;;;;;;;;;10411964;28;20033;-57
2023/01/18 06:15:42;;;;;;;3.42;2.33;;;;;;;;;;10407564;28;20025;-60
2023/01/18 06:20:42;;;;;;;2.53;2.00;;;;;;;;;;10408907;28;20036;-51
2023/01/18 06:25:43;;;;;;;2.78;2.28;;;;;;;;;;10409247;28;20387;-55
2023/01/18 06:30:46;;;;;;;2.58;2.20;;;;;;;;;;10410311;28;20496;-56
2023/01/18 06:35:47;;;;;;;3.70;2.40;;;;;;;;;;10404842;28;20077;-64
2023/01/18 06:40:47;;;;;;;6.30;3.00;;;;;;;;;;10398018;28;20037;-55
2023/01/18 06:45:56;;;;;;;11.70;3.00;;;;;;;;;;10402858;28;20053;-64
2023/01/18 06:50:57;;;;;;;2.92;2.47;;;;;;;;;;10411210;28;20408;-64
2023/01/18 06:56:03;;;;;;;3.75;2.53;;;;;;;;;;10406201;28;20762;-64
2023/01/18 07:01:04;;;;;;;4.70;3.70;;;;;;;;;;10384597;28;20113;-61
2023/01/18 07:06:06;;;;;;;7.05;4.45;;;;;;;;;;10405649;28;20060;-62
2023/01/18 07:11:13;;;;;;;12.45;4.80;;;;;;;;;;10391593;28;20029;-69
2023/01/18 07:16:19;;;;;;;10.05;4.75;;;;;;;;;;10400281;28;20637;-63
2023/01/18 07:21:28;;;;;;;9.13;5.05;;;;;;;;;;10402371;28;20370;-68
2023/01/18 07:26:28;;;;;;;12.00;4.97;;;;;;;;;;10399682;28;20022;-70
2023/01/18 07:31:29;;;;;;;9.95;5.00;;;;;;;;;;10407124;28;20021;-70
2023/01/18 07:36:30;;;;;;;8.68;5.43;;;;;;;;;;10409409;28;20041;-70
2023/01/18 07:41:31;;;;;;;7.88;4.85;;;;;;;;;;10394071;28;20091;-70
2023/01/18 07:46:32;;;;;;;9.95;5.20;;;;;;;;;;10387471;28;20022;-70
2023/01/18 07:51:33;;;;;;;10.32;4.80;;;;;;;;;;10406524;28;20025;-70
2023/01/18 07:56:34;;;;;;;10.02;5.72;;;;;;;;;;10407911;28;20427;-70
2023/01/18 08:01:35;;;;;;;12.25;5.28;;;;;;;;;;10394526;28;20044;-66
2023/01/18 08:06:36;;;;;;;8.60;5.03;;;;;;;;;;10407986;28;20032;-66
2023/01/18 08:11:36;;;;;;;8.90;5.63;;;;;;;;;;10407248;28;20048;-66
2023/01/18 08:16:37;;;;;;;10.48;6.13;;;;;;;;;;10407416;28;20440;-68
2023/01/18 08:21:38;;;;;;;8.57;5.07;;;;;;;;;;10407522;28;20087;-68
2023/01/18 08:26:38;;;;;;;9.05;5.63;;;;;;;;;;10396289;28;20029;-63
2023/01/18 08:31:39;;;;;;;7.63;5.30;;;;;;;;;;10404885;28;20025;-54
2023/01/18 08:36:40;;;;;;;7.20;5.10;;;;;;;;;;10405117;28;20401;-52
2023/01/18 08:41:41;;;;;;;10.63;5.60;;;;;;;;;;10392679;28;20208;-70
2023/01/18 08:46:41;;;;;;;8.60;5.55;;;;;;;;;;10406429;28;20197;-49
2023/01/18 08:51:42;;;;;;;8.07;5.35;;;;;;;;;;10404612;28;20052;-59
2023/01/18 08:56:43;;;;;;;8.15;5.47;;;;;;;;;;10403943;28;20095;-56
2023/01/18 09:01:43;;;;;;;8.10;5.85;;;;;;;;;;10405069;28;20036;-70
2023/01/18 09:06:45;;;;;;;9.50;5.18;;;;;;;;;;10405378;28;20044;-69
2023/01/18 09:11:49;;;;;;;8.75;4.85;;;;;;;;;;10405628;28;20030;-53
2023/01/18 09:16:49;;;;;;;9.23;5.38;;;;;;;;;;10405903;28;20017;-70
2023/01/18 09:21:51;;;;;;;6.53;5.03;;;;;;;;;;10405991;28;20037;-70
2023/01/18 09:26:52;;;;;;;7.82;5.10;;;;;;;;;;10404930;28;20044;-69
2023/01/18 09:31:54;;;;;;;7.63;4.93;;;;;;;;;;10401644;28;20025;-70
2023/01/18 09:36:55;;;;;;;7.00;4.78;;;;;;;;;;10391019;28;20055;-69
2023/01/18 09:42:00;;;;;;;7.32;4.95;;;;;;;;;;10407494;28;20029;-67
2023/01/18 09:47:18;;;;;;;9.65;5.15;;;;;;;;;;10399489;28;20065;-67
2023/01/18 09:52:31;;;;;;;9.90;4.75;;;;;;;;;;10412383;28;20429;-69
2023/01/18 09:57:54;;;;;;;6.57;4.90;;;;;;;;;;10399405;28;20029;-61
2023/01/18 10:03:03;;;;;;;6.47;4.82;;;;;;;;;;10402233;28;20121;-69
2023/01/18 10:08:17;;;;;;;5.93;4.68;;;;;;;;;;10383655;28;20033;-70
2023/01/18 10:13:47;;;;;;;6.53;4.95;;;;;;;;;;10403312;28;20030;-65
2023/01/18 10:18:52;;;;;;;13.45;5.10;;;;;;;;;;10403857;28;20029;-70
2023/01/18 10:24:20;;;;;;;6.22;4.80;;;;;;;;;;10393788;28;20031;-69
2023/01/18 10:29:43;;;;;;;8.40;5.00;;;;;;;;;;10401231;28;20453;-65
2023/01/18 10:34:49;;;;;;;6.13;4.80;;;;;;;;;;10389195;23;20045;-61
2023/01/18 10:39:56;;;;;;;5.45;4.47;;;;;;;;;;10386148;28;20052;-59
2023/01/18 10:44:56;;;;;;;6.13;4.60;;;;;;;;;;10397557;28;20022;-59
2023/01/18 10:49:58;;;;;;;7.47;4.55;;;;;;;;;;10369716;28;20022;-58
2023/01/18 10:55:08;;;;;;;7.15;5.28;;;;;;;;;;10395087;28;20050;-57
2023/01/18 11:00:22;;;;;;;9.63;5.45;;;;;;;;;;10381951;28;20458;-59
2023/01/18 11:05:31;;;;;;;6.63;4.82;;;;;;;;;;10357229;28;20022;-48
2023/01/18 11:10:32;;;;;;;7.85;5.55;;;;;;;;;;10379420;28;20181;-57
2023/01/18 11:15:32;;;;;;;7.20;5.32;;;;;;;;;;10375215;28;20217;-55
2023/01/18 11:20:44;;;;;;;9.32;5.72;;;;;;;;;;10385597;28;20025;-55
2023/01/18 11:26:16;;;;;;;6.78;5.70;;;;;;;;;;10372306;28;20443;-57
2023/01/18 11:31:21;;;;;;;6.53;5.25;;;;;;;;;;10356019;28;20041;-53
2023/01/18 11:36:43;;;;;;;7.78;5.45;;;;;;;;;;10368340;28;20057;-57
2023/01/18 11:41:44;;;;;;;6.53;5.13;;;;;;;;;;10356909;28;20077;-57
2023/01/18 11:46:51;;;;;;;7.50;5.97;;;;;;;;;;10360342;28;20029;-55
2023/01/18 11:52:01;;;;;;;7.50;5.25;;;;;;;;;;10349921;28;20022;-59
2023/01/18 11:57:02;;;;;;;7.40;5.20;;;;;;;;;;10354391;28;20026;-57
2023/01/18 12:02:29;;;;;;;7.10;5.50;;;;;;;;;;10367483;28;20040;-57
2023/01/18 12:07:55;;;;;;;7.15;5.30;;;;;;;;;;10360890;28;20022;-58
2023/01/18 12:13:32;;;;;;;6.65;4.97;;;;;;;;;;10341269;28;20062;-55
2023/01/18 12:19:03;;;;;;;6.75;5.20;;;;;;;;;;10350922;28;20057;-59
2023/01/18 12:24:18;;;;;;;7.43;5.20;;;;;;;;;;10356578;28;20539;-53
2023/01/18 12:30:09;;;;;;;5.68;4.65;;;;;;;;;;10354710;28;20174;-56
2023/01/18 12:35:13;;;;;;;7.07;5.43;;;;;;;;;;10347239;28;20113;-61
2023/01/18 12:40:49;;;;;;;5.82;5.00;;;;;;;;;;10365920;28;20031;-57
2023/01/18 12:46:02;;;;;;;5.80;4.72;;;;;;;;;;10324898;28;20026;-58
2023/01/18 12:51:12;;;;;;;6.38;4.25;;;;;;;;;;10340280;28;20137;-60
2023/01/18 12:56:36;;;;;;;6.38;5.25;;;;;;;;;;10342221;28;20200;-58
2023/01/18 13:01:44;;;;;;;6.00;4.07;;;;;;;;;;10346013;28;20048;-58
2023/01/18 13:06:49;;;;;;;7.23;5.27;;;;;;;;;;10346155;28;20042;-58
2023/01/18 13:11:49;;;;;;;6.00;4.82;;;;;;;;;;10362872;28;20474;-59
2023/01/18 13:17:11;;;;;;;6.70;4.85;;;;;;;;;;10367326;28;20393;-60
2023/01/18 13:22:34;;;;;;;7.35;5.70;;;;;;;;;;10335470;28;20059;-60
2023/01/18 13:27:36;;;;;;;8.88;4.88;;;;;;;;;;10355679;28;20058;-57
2023/01/18 13:32:37;;;;;;;7.07;5.30;;;;;;;;;;10340731;28;20030;-59
2023/01/18 13:37:52;;;;;;;8.38;5.55;;;;;;;;;;10358600;28;20068;-56
2023/01/18 13:42:53;;;;;;;7.28;5.32;;;;;;;;;;10359442;28;20136;-49
2023/01/18 13:48:24;;;;;;;6.40;5.35;;;;;;;;;;10365123;28;20044;-49
2023/01/18 13:53:26;;;;;;;7.60;5.90;;;;;;;;;;10345099;28;20376;-56
2023/01/18 13:58:36;;;;;;;8.00;5.85;;;;;;;;;;10358343;28;20365;-56
2023/01/18 14:03:45;;;;;;;8.45;5.63;;;;;;;;;;10364301;28;20034;-55
2023/01/18 14:09:07;;;;;;;7.72;6.03;;;;;;;;;;10331818;28;20042;-59
2023/01/18 14:14:10;;;;;;;7.80;5.65;;;;;;;;;;10362537;28;20041;-55
2023/01/18 14:19:22;;;;;;;7.60;5.78;;;;;;;;;;10361655;28;20034;-48
2023/01/18 14:24:56;;;;;;;8.50;5.57;;;;;;;;;;10359978;28;20057;-54
2023/01/18 14:30:11;;;;;;;7.82;5.78;;;;;;;;;;10367070;28;20026;-50
2023/01/18 14:35:20;;;;;;;8.98;6.60;;;;;;;;;;10371234;28;20053;-56
2023/01/18 14:40:26;;;;;;;8.25;6.10;;;;;;;;;;10361329;28;20030;-51
2023/01/18 14:45:31;;;;;;;8.80;5.65;;;;;;;;;;10362537;28;20031;-48
2023/01/18 14:50:35;;;;;;;10.45;5.45;;;;;;;;;;10352711;28;20064;-49
2023/01/18 14:55:36;;;;;;;6.45;5.13;;;;;;;;;;10367798;28;20401;-48
2023/01/18 15:00:50;;;;;;;7.50;5.25;;;;;;;;;;10369987;28;20037;-53
2023/01/18 15:06:01;;;;;;;11.85;6.28;;;;;;;;;;10368971;28;20034;-48
2023/01/18 15:11:03;;;;;;;8.02;5.63;;;;;;;;;;10352227;28;20026;-50
2023/01/18 15:16:05;;;;;;;8.30;5.93;;;;;;;;;;10364309;28;20581;-48
2023/01/18 15:21:16;;;;;;;6.47;5.13;;;;;;;;;;10363622;28;20044;-48
2023/01/18 15:26:34;;;;;;;7.50;5.10;;;;;;;;;;10369809;28;20091;-51
2023/01/18 15:32:04;;;;;;;8.55;5.13;;;;;;;;;;10363459;28;20085;-47
2023/01/18 15:37:10;;;;;;;7.57;5.28;;;;;;;;;;10357944;28;20680;-47
2023/01/18 15:42:14;;;;;;;8.48;5.65;;;;;;;;;;10342957;28;20037;-56
2023/01/18 15:47:36;;;;;;;8.68;5.75;;;;;;;;;;10378289;28;20529;-50
2023/01/18 15:52:46;;;;;;;7.68;5.35;;;;;;;;;;10342728;28;20046;-48
2023/01/18 15:58:21;;;;;;;7.65;4.65;;;;;;;;;;10346874;28;20030;-56
2023/01/18 16:03:36;;;;;;;7.25;5.25;;;;;;;;;;10366876;28;20440;-59
2023/01/18 16:09:07;;;;;;;6.50;4.80;;;;;;;;;;10346084;28;20125;-56
2023/01/18 16:14:27;;;;;;;10.65;5.60;;;;;;;;;;10362266;28;20052;-48
2023/01/18 16:19:35;;;;;;;8.38;5.63;;;;;;;;;;10363453;28;20026;-47
2023/01/18 16:25:07;;;;;;;5.90;5.07;;;;;;;;;;10347967;28;20052;-55
2023/01/18 16:30:19;;;;;;;6.82;4.72;;;;;;;;;;10347178;28;20126;-56
2023/01/18 16:35:22;;;;;;;7.55;4.82;;;;;;;;;;10368448;28;20103;-51
2023/01/18 16:40:23;;;;;;;7.75;4.50;;;;;;;;;;10365441;28;20037;-45
2023/01/18 16:45:24;;;;;;;6.10;4.97;;;;;;;;;;10365739;28;20034;-46
2023/01/18 16:50:25;;;;;;;6.00;4.82;;;;;;;;;;10365525;28;20030;-45
2023/01/18 16:55:26;;;;;;;8.32;5.43;;;;;;;;;;10365370;28;20022;-59
2023/01/18 17:00:34;;;;;;;10.18;5.57;;;;;;;;;;10368280;28;20576;-47
2023/01/18 17:05:35;;;;;;;12.77;6.03;;;;;;;;;;10364822;28;20040;-58
2023/01/18 17:10:38;;;;;;;14.32;6.13;;;;;;;;;;10364844;28;20037;-47
2023/01/18 17:15:40;;;;;;;8.82;5.47;;;;;;;;;;10364648;28;20026;-56
2023/01/18 17:20:42;;;;;;;8.25;5.75;;;;;;;;;;10360672;28;20446;-55
2023/01/18 17:25:43;;;;;;;8.13;5.85;;;;;;;;;;10364602;28;20052;-48
2023/01/18 17:30:47;;;;;;;10.27;6.13;;;;;;;;;;10362068;28;20036;-50
2023/01/18 17:35:53;;;;;;;9.23;6.00;;;;;;;;;;10338052;28;20670;-45
2023/01/18 17:40:53;;;;;;;7.07;5.55;;;;;;;;;;10362902;28;20120;-45
2023/01/18 17:45:55;;;;;;;12.73;6.13;;;;;;;;;;10357669;28;20038;-48
2023/01/18 17:50:57;;;;;;;9.75;6.13;;;;;;;;;;10354963;28;20030;-50
2023/01/18 17:55:58;;;;;;;9.23;6.68;;;;;;;;;;10362633;28;20041;-52
2023/01/18 18:01:10;;;;;;;12.90;6.25;;;;;;;;;;10367427;28;20036;-59
2023/01/18 18:06:11;;;;;;;11.90;7.05;;;;;;;;;;10369546;28;20034;-48
2023/01/18 18:11:12;;;;;;;12.32;7.85;;;;;;;;;;10369611;28;20034;-49
2023/01/18 18:16:13;;;;;;;14.77;7.70;;;;;;;;;;10350556;28;20033;-48
2023/01/18 18:21:14;;;;;;;12.93;7.90;;;;;;;;;;10369685;28;20135;-57
2023/01/18 18:26:15;;;;;;;12.80;7.38;;;;;;;;;;10370996;28;20136;-50
2023/01/18 18:31:16;;;;;;;17.08;8.32;;;;;;;;;;10366723;28;20022;-53
2023/01/18 18:36:16;;;;;;;45.45;8.73;;;;;;;;;;10367232;28;20095;-44
2023/01/18 18:41:17;;;;;;;23.13;8.13;;;;;;;;;;10365986;28;20394;-46
2023/01/18 18:46:23;;;;;;;15.10;7.43;;;;;;;;;;10361739;28;20123;-45
2023/01/18 18:51:28;;;;;;;12.95;7.70;;;;;;;;;;10366922;28;20029;-49
2023/01/18 18:56:38;;;;;;;14.02;7.20;;;;;;;;;;10369699;28;20050;-46
2023/01/18 19:01:45;;;;;;;14.90;7.90;;;;;;;;;;10365621;28;20044;-46
2023/01/18 19:06:53;;;;;;;16.65;8.48;;;;;;;;;;10370427;28;20030;-49
2023/01/18 19:11:59;;;;;;;11.77;8.05;;;;;;;;;;10372463;28;20048;-45
2023/01/18 19:17:05;;;;;;;14.48;8.60;;;;;;;;;;10374840;28;20033;-45
2023/01/18 19:22:15;;;;;;;13.77;8.82;;;;;;;;;;10360552;28;20025;-48
2023/01/18 19:27:15;;;;;;;16.83;9.65;;;;;;;;;;10365878;28;20026;-46
2023/01/18 19:32:19;;;;;;;14.00;9.30;;;;;;;;;;10373596;28;20021;-45
2023/01/18 19:37:19;;;;;;;13.65;8.68;;;;;;;;;;10368770;28;20091;-50
2023/01/18 19:42:26;;;;;;;15.32;8.98;;;;;;;;;;10372453;28;20060;-47
2023/01/18 19:47:35;;;;;;;17.17;10.32;;;;;;;;;;10399689;28;20117;-47
2023/01/18 19:52:42;;;;;;;20.40;9.85;;;;;;;;;;10375977;28;20030;-46
2023/01/18 19:57:43;;;;;;;15.13;9.23;;;;;;;;;;10389519;28;20573;-49
2023/01/18 20:02:51;;;;;;;12.30;8.73;;;;;;;;;;10389499;28;20040;-48
2023/01/18 20:07:58;;;;;;;13.30;9.10;;;;;;;;;;10397507;28;20061;-48
2023/01/18 20:13:04;;;;;;;20.48;9.48;;;;;;;;;;10379582;28;20037;-56
2023/01/18 20:18:06;;;;;;;24.23;9.70;;;;;;;;;;10356875;28;20026;-45
2023/01/18 20:23:06;;;;;;;24.85;10.30;;;;;;;;;;10367674;28;20540;-46
2023/01/18 20:28:07;;;;;;;13.57;9.02;;;;;;;;;;10358185;28;20084;-45
2023/01/18 20:33:07;;;;;;;16.98;9.23;;;;;;;;;;10368208;28;20022;-45
2023/01/18 20:38:08;;;;;;;21.42;10.05;;;;;;;;;;10366018;28;20049;-48
2023/01/18 20:43:09;;;;;;;12.93;8.23;;;;;;;;;;10366944;28;20026;-45
2023/01/18 20:48:11;;;;;;;21.60;9.25;;;;;;;;;;10366868;28;20030;-46
2023/01/18 20:53:12;;;;;;;15.05;9.32;;;;;;;;;;10366991;28;20022;-45
2023/01/18 20:58:12;;;;;;;12.65;8.05;;;;;;;;;;10366099;28;20030;-54
2023/01/18 21:03:16;;;;;;;17.75;9.00;;;;;;;;;;10366909;28;20022;-46
2023/01/18 21:08:18;;;;;;;14.57;8.73;;;;;;;;;;10366731;28;20053;-46
2023/01/18 21:13:19;;;;;;;13.40;8.43;;;;;;;;;;10366913;28;20030;-45
2023/01/18 21:18:19;;;;;;;15.25;8.80;;;;;;;;;;10364588;28;20080;-45
2023/01/18 21:23:24;;;;;;;21.35;9.10;;;;;;;;;;10365974;28;20099;-45
2023/01/18 21:28:25;;;;;;;16.92;8.98;;;;;;;;;;10354097;28;20543;-46
2023/01/18 21:33:27;;;;;;;12.50;8.45;;;;;;;;;;10365850;28;20080;-45
2023/01/18 21:38:28;;;;;;;14.25;9.15;;;;;;;;;;10364631;28;20048;-47
2023/01/18 21:48:48;;;;;;;14.95;8.93;;;;;;;;;;10366442;28;20049;-51
2023/01/18 21:59:28;;;;;;;12.50;8.80;;;;;;;;;;10239302;28;20234;-48
2023/01/18 22:09:48;;;;;;;11.70;8.38;;;;;;;;;;10238876;28;20039;-45
2023/01/18 22:14:49;;;;;;;12.00;8.32;;;;;;;;;;10239735;28;20055;-45
2023/01/18 22:19:50;;;;;;;14.93;8.25;;;;;;;;;;10239820;28;20114;-45
2023/01/18 22:24:51;;;;;;;13.52;8.00;;;;;;;;;;10239136;28;20110;-45
2023/01/18 22:29:51;;;;;;;13.32;8.60;;;;;;;;;;10322978;28;20042;-46
2023/01/18 22:34:52;;;;;;;14.13;8.68;;;;;;;;;;10364786;28;20389;-45
2023/01/18 22:39:53;;;;;;;12.25;8.50;;;;;;;;;;10378716;28;20029;-46
2023/01/18 22:44:53;;;;;;;11.68;8.57;;;;;;;;;;10371245;28;20041;-51
2023/01/18 22:49:54;;;;;;;18.17;10.02;;;;;;;;;;10368096;28;20038;-47
2023/01/18 22:54:54;;;;;;;24.55;11.02;;;;;;;;;;10374026;28;20025;-45
2023/01/18 22:59:55;;;;;;;24.90;10.32;;;;;;;;;;10367112;28;20022;-57
2023/01/18 23:04:55;;;;;;;18.15;10.57;;;;;;;;;;10373499;28;20033;-51
2023/01/18 23:09:56;;;;;;;20.23;10.65;;;;;;;;;;10381623;28;20084;-49
2023/01/18 23:20:16;;;;;;;17.00;10.20;;;;;;;;;;10369701;28;20056;-50
2023/01/18 23:25:16;;;;;;;20.27;11.00;;;;;;;;;;10380462;28;20489;-45
2023/01/18 23:30:18;;;;;;;21.73;11.63;;;;;;;;;;10371044;28;20038;-45
2023/01/18 23:35:18;;;;;;;20.30;10.48;;;;;;;;;;10369269;28;20046;-47
2023/01/18 23:56:37;;;;;;;15.50;10.00;;;;;;;;;;10386159;28;20068;-45
